Airfield :
LOGIN :

Register | Disclaimer

   EN    FR    IT 

 










Legend :    VFR   Marginal VFR   IFR   Intensive IFR   Very Intensive IFR
Visi :
Ceiling :
>= 8 km
>= 3000ft
5 to 8 km
1000 to 3000 ft
1500m to 5 km
500 to 1000 ft
800 to 1500m
200 to 500 ft
< 800m
< 200 ft
Symbols :   Thunderstorms  Fog  Heavy snow  Heavy precipitations  Wind > 20 kt
SIGMETs :     Misc.  Thunderstorms  Icing  Turbulence  Mountain Waves  Volcanic Ashes






- Airport Elevation : 15 ft
- IATA code : FCO


LIRF - Roma Leonardo da Vinci Fiumicino

CURRENT METAR :
  • 052150Z 04005KT CAVOK 21/13 Q1011 NOSIG

EXPIRED METARs :
  • 052120Z 04003KT 360V080 CAVOK 23/14 Q1011 NOSIG
  • 052050Z 06004KT CAVOK 22/16 Q1011 NOSIG
  • 052020Z VRB02KT CAVOK 21/16 Q1011 NOSIG
  • 051950Z 05005KT 020V090 CAVOK 21/17 Q1010 NOSIG
  • 051920Z 07005KT CAVOK 22/17 Q1010 NOSIG

TAF TAF LIRF
Valid from the 05 at 18:00 until the 07 at 00:00 UTC


051700Z 0518/0624 01010KT 9999 SCT040
BECMG 0521/0523 03006KT
BECMG 0610/0612 26010KT
BECMG 0617/0619 03012KT



MET'MAP, your aeronautical weather chart ! - Copyright ORBIFLY December 2007 - Disclaimer

ORBIFLY MET'MAP TEAM :

Programming & Development : Alexandra Zaïnal
Concept & original design : Baudouin d'Aumeries
Assistance for programming : Marc-Olivier Méhu
Technical & hardware support : Manuel Goepfert

Contact : metmap@orbifly.com




SOURCES & CREDITS :

   NOAA